East Berne, New York
Current Conditions -  °F | °C
As of 11:51 AM on Thursday 27 Nov 2014 (Local Time) from KALB Reporting Station
Light Snow Light Snow  
Wind Chill: 24°   Ceiling: 1800
Heat Index: 31°   Visibility: 10mi
Dew Point: 24°   Wind: 7mph
Humidity: 76%   Direction: 30°NNE
Pressure: 30.02"   Gusts: NA
Location:  42.62°N, 74.07°W
Report Text: KALB 271651Z 03006KT 10SM -SN FEW009 BKN018 OVC033 M01/M04 A3002 RMK AO2 SNB1559 SLP167 PCPN VRY LGT P0000 T10061044
Loading
Personal Weather Stations






























Interactive Weather Map New forecast layout! Learn more

10-Day Weather Forecast

Advertisements
Track Severe Weather on mobile